Fielding, Utah
Current Conditions -  °F | °C
As of 1:51 PM on Friday 19 Dec 2014 (Local Time) from KLGU Reporting Station
Overcast Overcast  
Wind Chill: 42°   Ceiling: 7500
Heat Index: 42°   Visibility: 10mi
Dew Point: 28°   Wind: 0mph
Humidity: 58%   Direction: NA
Pressure: 30.11"   Gusts: NA
Location:  41.81°N, 112.12°W
Report Text: KLGU 192051Z AUTO 00000KT 10SM BKN075 OVC090 06/M02 A3011 RMK AO2 SLP205 T00561022 58022
Loading
Personal Weather Stations






























Interactive Weather Map New forecast layout! Learn more

10-Day Weather Forecast

Advertisements
Track Severe Weather on mobile